< < Back
Terminal Aerodrome Forecast


Current Version              Previous Versions:   1  2  3  4  5  6  7  8  9  

Terminal Aerodrome Forecast

137
FTUS44 KBMX 291100
TAFMGM
TAF
KMGM 291126Z 2912/3012 32005KT P6SM SKC
     FM291500 33012KT P6SM SKC
     FM300100 35005KT P6SM SKC=

Latest METAR

510
SAUS80 KWBC 291700
MTRMGM
METAR KMGM 291653Z 33010G14KT 290V010 10SM BKN055 30/15 A3003 RMK AO2
SLP166 T03000150


USA.gov is the U.S. government's official web portal to all federal, state and local government web resources and services.